KLRU/LRU METAR and TAF weather

Enter ICAO airport designator
Station Type Date Time Source
KLRU METAR 2020/04/05 15:35 UTC NOAA

KLRU 051535Z AUTO 27014KT 10SM CLR 17/M01 A3003 RMK AO2 T01661009


Station Type Date Time Source
KLRU Decoded METAR 2020/04/05 15:35 UTC NOAA

Las Cruces, Las Cruces International Airport, NM, United States (KLRU) 32-17-22N 106-55-19W
Apr 05, 2020 - 11:35 AM EDT / 2020.04.05 1535 UTC
Wind: from the W (270 degrees) at 16 MPH (14 KT):0
Visibility: 10 mile(s):0
Sky conditions: clear
Temperature: 61.9 F (16.6 C)
Dew Point: 30.4 F (-0.9 C)
Relative Humidity: 30%
Pressure (altimeter): 30.03 in. Hg (1016 hPa)
ob: KLRU 051535Z AUTO 27014KT 10SM CLR 17/M01 A3003 RMK AO2 T01661009
cycle: 15

Station Type Date Time Source
KLRU TAF 2020/04/05 12:22 UTC NOAA

TAF KLRU 051120Z 0512/0612 22006KT P6SM SKC
FM051700 23012G22KT P6SM SCT250
FM060200 25010KT P6SM BKN250

Example: see airport list